Current Weather

Provence

Provence, France (LFML)

Report from: Saturday, June 22, 2024 1:30 AM CEST
Current time: Saturday, June 22, 2024 1:49 AM CEST

Nearby weather – Weather history – Daily summaries
Weather forecast

Temperature21.0°C (69.8°F)
Dew point15.0°C (59.0°F)
Winds 18 kts (9.3 m/s, 20.7 mph) West-Northwest (290°)
Clouds Sky clear
Altimeter30.03 in.Hg (1017 mB)
Relative humidity69 %
Density altitude810 ft. (247 m)
Remarks Fully automated report
Ceiling and visibility OK
No significant changes expected in the next two hours
Flight conditions Visual Meteorological Conditions
Raw dataLFML 212330Z AUTO 29018KT CAVOK 21/15 Q1017 NOSIG
An error has occurred. This application may no longer respond until reloaded. Reload 🗙